Time;durP1;ratioP1;P1;durP2;ratioP2;P2;SDS_P1;SDS_P2;PMS_P1;PMS_P2;Temp;Humidity;BMP_temperature;BMP_pressure;BME280_temperature;BME280_humidity;BME280_pressure;Samples;Min_cycle;Max_cycle;Signal;HPM_P1;HPM_P2
2022/10/19 00:01:53;;;;;;;12.93;8.57;;;;;;;9.70;53.91;95261.28;4189915;28;20131;-57
2022/10/19 00:03:55;;;;;;;12.25;8.65;;;;;;;9.68;54.66;95260.59;4179461;28;20055;-59
2022/10/19 00:05:57;;;;;;;15.60;9.63;;;;;;;9.67;54.18;95257.16;4188574;28;20128;-60
2022/10/19 00:08:00;;;;;;;16.20;10.15;;;;;;;9.69;53.73;95254.41;4193543;28;20123;-58
2022/10/19 00:10:03;;;;;;;14.50;9.45;;;;;;;9.72;54.22;95262.81;4195740;28;20132;-57
2022/10/19 00:12:05;;;;;;;15.50;9.48;;;;;;;9.69;54.22;95255.22;4193698;28;20054;-58
2022/10/19 00:14:09;;;;;;;17.15;9.05;;;;;;;9.68;53.78;95253.59;4183017;28;20098;-57
2022/10/19 00:16:13;;;;;;;15.90;9.63;;;;;;;9.67;54.07;95243.25;4226086;28;20537;-58
2022/10/19 00:18:15;;;;;;;13.13;8.70;;;;;;;9.68;53.52;95247.50;4195557;28;20128;-59
2022/10/19 00:20:16;;;;;;;18.10;9.02;;;;;;;9.72;53.07;95244.50;4193801;28;20083;-56
2022/10/19 00:22:18;;;;;;;15.13;9.45;;;;;;;9.68;53.70;95239.66;4194166;28;20151;-56
2022/10/19 00:24:20;;;;;;;15.15;8.93;;;;;;;9.60;53.80;95243.00;4194363;28;20072;-57
2022/10/19 00:26:22;;;;;;;15.27;8.70;;;;;;;9.57;54.20;95236.25;4187034;28;20688;-58
2022/10/19 00:28:24;;;;;;;16.35;8.00;;;;;;;9.58;53.59;95235.28;4195305;28;20137;-58
2022/10/19 00:30:25;;;;;;;14.95;8.38;;;;;;;9.61;53.70;95223.69;4187930;28;20054;-57
2022/10/19 00:32:27;;;;;;;10.15;7.15;;;;;;;9.60;53.29;95224.69;4188361;28;20079;-56
2022/10/19 00:34:29;;;;;;;9.85;7.05;;;;;;;9.59;53.06;95216.03;4195078;28;20109;-57
2022/10/19 00:36:34;;;;;;;8.43;6.30;;;;;;;9.59;53.09;95217.78;4182062;28;20120;-56
2022/10/19 00:38:35;;;;;;;10.88;6.50;;;;;;;9.58;52.73;95216.16;4192921;28;20392;-58
2022/10/19 00:40:38;;;;;;;10.23;6.15;;;;;;;9.54;52.52;95218.22;4181655;28;20796;-58
2022/10/19 00:42:39;;;;;;;10.45;6.32;;;;;;;9.50;52.56;95208.19;4194389;28;20086;-59
2022/10/19 00:44:41;;;;;;;12.00;6.80;;;;;;;9.51;52.92;95200.19;4194862;28;20140;-56
2022/10/19 00:46:46;;;;;;;9.50;6.10;;;;;;;9.52;52.30;95198.41;4188857;28;20132;-58
2022/10/19 00:48:47;;;;;;;12.43;7.05;;;;;;;9.56;53.02;95194.53;4177755;28;20076;-57
2022/10/19 00:50:55;;;;;;;11.25;6.50;;;;;;;9.56;52.21;95191.94;4178823;28;20124;-58
2022/10/19 00:52:57;;;;;;;11.70;6.90;;;;;;;9.51;52.28;95194.16;4190640;28;20075;-57
2022/10/19 00:54:58;;;;;;;14.35;6.50;;;;;;;9.48;52.94;95197.03;4178726;28;20513;-57
2022/10/19 00:57:02;;;;;;;10.52;6.45;;;;;;;9.42;52.44;95196.63;4210430;28;20052;-57
2022/10/19 00:59:04;;;;;;;15.27;6.65;;;;;;;9.38;53.08;95190.03;4192341;28;20045;-54
2022/10/19 01:01:07;;;;;;;9.57;6.35;;;;;;;9.34;52.92;95190.44;4225779;28;20100;-57
2022/10/19 01:03:09;;;;;;;10.10;6.53;;;;;;;9.31;53.43;95188.09;4193693;28;20052;-57
2022/10/19 01:05:11;;;;;;;11.00;6.53;;;;;;;9.32;53.48;95177.50;4183668;28;20817;-58
2022/10/19 01:07:13;;;;;;;11.38;6.53;;;;;;;9.33;53.57;95180.94;4187271;28;20060;-56
2022/10/19 01:09:15;;;;;;;11.13;7.53;;;;;;;9.32;53.24;95174.88;4177936;28;20128;-57
2022/10/19 01:11:22;;;;;;;12.18;6.90;;;;;;;9.31;53.63;95172.41;4191970;28;20056;-56
2022/10/19 01:13:47;;;;;;;12.40;5.78;;;;;;;9.28;53.38;95165.69;4184137;28;20056;-59
2022/10/19 01:16:09;;;;;;;;;;;;;;;9.31;52.94;95167.19;4181356;28;20135;-57
2022/10/19 01:18:19;;;;;;;10.98;6.85;;;;;;;9.30;53.02;95165.53;4180543;28;19927;-55
2022/10/19 01:20:45;;;;;;;9.95;6.35;;;;;;;9.32;52.73;95161.81;4184056;28;20127;-58
2022/10/19 01:23:09;;;;;;;12.13;6.68;;;;;;;9.32;53.13;95161.81;4177702;28;20103;-59
2022/10/19 01:25:48;;;;;;;10.45;6.10;;;;;;;9.25;53.58;95158.13;4178458;28;20052;-57
2022/10/19 01:28:05;;;;;;;9.38;6.38;;;;;;;9.17;53.92;95155.38;4176069;28;20045;-57
2022/10/19 01:30:25;;;;;;;11.07;6.47;;;;;;;9.12;53.90;95155.78;4178173;28;20131;-59
2022/10/19 01:32:33;;;;;;;12.05;6.45;;;;;;;9.13;53.58;95157.44;4166565;28;20064;-56
2022/10/19 01:35:11;;;;;;;11.38;6.95;;;;;;;9.07;54.51;95149.31;4191485;28;20056;-57
2022/10/19 01:37:49;;;;;;;11.95;6.70;;;;;;;9.01;55.28;95140.22;4180456;28;20045;-59
2022/10/19 01:40:02;;;;;;;12.90;7.22;;;;;;;8.95;55.11;95144.25;4148685;28;20221;-59
2022/10/19 01:42:14;;;;;;;12.95;6.55;;;;;;;8.93;55.38;95137.50;4207126;28;20048;-56
2022/10/19 01:44:26;;;;;;;12.77;6.88;;;;;;;8.89;55.26;95138.75;4193599;28;20505;-59
2022/10/19 01:46:39;;;;;;;10.23;6.90;;;;;;;8.88;55.37;95137.09;4191457;28;20139;-57
2022/10/19 01:48:48;;;;;;;11.07;6.50;;;;;;;8.90;55.20;95138.59;4193381;28;20087;-56
2022/10/19 01:50:54;;;;;;;15.52;6.80;;;;;;;8.89;55.66;95131.72;4193076;28;20080;-56
2022/10/19 01:52:57;;;;;;;12.10;6.30;;;;;;;8.87;55.47;95131.03;4177081;28;20055;-57
2022/10/19 01:54:59;;;;;;;11.23;6.82;;;;;;;8.85;55.73;95132.16;4185152;28;20528;-56
2022/10/19 01:57:03;;;;;;;10.20;6.85;;;;;;;8.80;55.73;95130.78;4192923;28;20168;-56
2022/10/19 01:59:07;;;;;;;13.45;7.30;;;;;;;8.77;55.91;95132.81;4180677;28;20128;-54
2022/10/19 02:01:10;;;;;;;10.73;6.15;;;;;;;8.73;55.72;95128.81;4159222;28;20105;-54
2022/10/19 02:03:17;;;;;;;8.82;6.40;;;;;;;8.72;55.69;95130.63;4184654;28;20052;-56
2022/10/19 02:05:21;;;;;;;11.55;6.65;;;;;;;8.73;56.13;95131.44;4188746;28;20055;-57
2022/10/19 02:07:23;;;;;;;16.02;7.18;;;;;;;8.67;56.28;95126.75;4190348;28;20489;-56
2022/10/19 02:09:25;;;;;;;13.80;6.63;;;;;;;8.65;56.79;95126.91;4182206;28;20064;-58
2022/10/19 02:11:27;;;;;;;13.27;7.20;;;;;;;8.67;56.58;95125.00;4192979;28;20687;-57
2022/10/19 02:13:29;;;;;;;11.10;7.32;;;;;;;8.63;56.32;95130.63;4175498;28;20080;-58
2022/10/19 02:15:33;;;;;;;9.70;6.28;;;;;;;8.60;56.98;95121.25;4190178;28;20079;-55
2022/10/19 02:17:41;;;;;;;11.60;7.30;;;;;;;8.53;57.09;95126.22;4191543;28;20564;-57
2022/10/19 02:19:42;;;;;;;11.65;7.85;;;;;;;8.60;56.99;95124.72;4182082;28;20478;-58
2022/10/19 02:21:44;;;;;;;14.48;7.95;;;;;;;8.63;56.70;95122.81;4188960;28;20058;-58
2022/10/19 02:23:46;;;;;;;15.75;7.25;;;;;;;8.53;56.51;95115.75;4181125;28;20048;-57
2022/10/19 02:25:52;;;;;;;8.57;6.53;;;;;;;8.51;56.08;95111.66;4195178;28;20057;-56
2022/10/19 02:27:54;;;;;;;11.60;6.03;;;;;;;8.48;56.45;95112.75;4184906;28;20056;-54
2022/10/19 02:29:56;;;;;;;7.25;5.15;;;;;;;8.49;56.04;95118.78;4192662;28;20083;-56
2022/10/19 02:31:58;;;;;;;10.05;6.07;;;;;;;8.50;55.70;95120.44;4183853;28;20048;-59
2022/10/19 02:34:00;;;;;;;10.32;5.63;;;;;;;8.48;55.75;95123.19;4194466;28;20123;-57
2022/10/19 02:36:02;;;;;;;11.10;5.95;;;;;;;8.50;55.74;95115.22;4194277;28;20131;-55
2022/10/19 02:38:04;;;;;;;9.85;5.40;;;;;;;8.51;56.29;95117.69;4189638;28;20136;-57
2022/10/19 02:40:07;;;;;;;9.55;5.45;;;;;;;8.51;55.87;95119.47;4189887;28;20053;-58
2022/10/19 02:42:11;;;;;;;11.13;5.63;;;;;;;8.51;56.31;95122.91;4192504;28;20436;-55
2022/10/19 02:44:22;;;;;;;10.60;5.40;;;;;;;8.51;56.15;95117.69;4190469;28;20057;-57
2022/10/19 02:46:31;;;;;;;11.63;5.78;;;;;;;8.49;56.59;95119.59;4193742;28;20057;-56
2022/10/19 02:48:34;;;;;;;11.32;5.97;;;;;;;8.49;56.96;95119.59;4195743;28;20048;-57
2022/10/19 02:50:36;;;;;;;11.93;6.60;;;;;;;8.39;57.17;95129.19;4195359;28;20159;-55
2022/10/19 02:52:39;;;;;;;13.43;7.78;;;;;;;8.27;57.72;95114.59;4196979;28;20072;-57
2022/10/19 02:54:42;;;;;;;10.00;5.82;;;;;;;8.28;58.05;95113.63;4192013;28;20041;-59
2022/10/19 02:56:44;;;;;;;12.15;6.35;;;;;;;8.25;58.04;95114.72;4178956;28;20076;-56
2022/10/19 02:58:46;;;;;;;9.18;5.28;;;;;;;8.31;57.32;95116.81;4180423;28;20059;-54
2022/10/19 03:00:47;;;;;;;11.02;6.05;;;;;;;8.35;57.23;95115.59;4178595;28;20080;-57
2022/10/19 03:02:49;;;;;;;9.15;4.95;;;;;;;8.38;56.54;95104.84;4185496;28;20044;-55
2022/10/19 03:04:50;;;;;;;8.25;5.28;;;;;;;8.45;56.34;95107.78;4196873;28;20127;-58
2022/10/19 03:06:52;;;;;;;8.30;5.00;;;;;;;8.43;55.43;95106.28;4196839;28;20049;-58
2022/10/19 03:08:54;;;;;;;9.75;5.72;;;;;;;8.26;56.95;95111.19;4196334;28;20283;-58
2022/10/19 03:10:59;;;;;;;12.50;5.55;;;;;;;7.93;57.42;95117.53;4196474;28;20056;-61
2022/10/19 03:13:01;;;;;;;12.75;6.18;;;;;;;7.43;58.93;95120.91;4197141;28;20131;-59
2022/10/19 03:15:03;;;;;;;9.57;5.82;;;;;;;7.02;59.72;95116.56;4184246;28;20056;-58
2022/10/19 03:17:05;;;;;;;13.18;5.90;;;;;;;6.87;60.22;95116.03;4194000;28;20052;-59
2022/10/19 03:19:07;;;;;;;15.25;6.57;;;;;;;6.90;60.33;95123.59;4196239;28;20048;-56
2022/10/19 03:21:11;;;;;;;13.77;7.57;;;;;;;6.94;60.19;95125.81;4195335;28;20495;-57
2022/10/19 03:23:12;;;;;;;;;;;;;;;7.05;59.98;95121.50;4184326;28;20047;-55
2022/10/19 03:25:14;;;;;;;12.00;6.57;;;;;;;7.22;59.70;95120.09;4194817;28;19963;-59
2022/10/19 03:27:16;;;;;;;17.33;6.95;;;;;;;7.39;59.17;95116.91;4189605;28;20087;-56
2022/10/19 03:29:17;;;;;;;12.77;7.45;;;;;;;7.46;58.76;95114.59;4189774;28;20079;-57
2022/10/19 03:31:19;;;;;;;9.68;6.38;;;;;;;7.57;58.63;95111.91;4192384;28;20568;-56
2022/10/19 03:33:21;;;;;;;15.07;7.03;;;;;;;7.65;58.83;95103.44;4194137;28;20084;-58
2022/10/19 03:35:23;;;;;;;7.85;6.20;;;;;;;7.71;58.75;95106.34;4194945;28;20088;-58
2022/10/19 03:37:24;;;;;;;12.10;6.50;;;;;;;7.79;58.72;95101.28;4196458;28;20464;-59
2022/10/19 03:39:26;;;;;;;10.02;6.20;;;;;;;7.86;58.56;95100.78;4188341;28;20135;-57
2022/10/19 03:41:30;;;;;;;13.05;6.47;;;;;;;7.89;58.81;95101.31;4188080;28;20135;-62
2022/10/19 03:43:31;;;;;;;9.50;5.97;;;;;;;7.92;58.72;95100.25;4185309;28;20048;-65
2022/10/19 03:45:33;;;;;;;12.35;6.28;;;;;;;7.90;58.90;95107.38;4193649;28;20553;-65
2022/10/19 03:47:35;;;;;;;13.30;6.97;;;;;;;7.87;59.22;95099.81;4196542;28;20134;-65
2022/10/19 03:49:37;;;;;;;14.68;6.15;;;;;;;7.87;59.08;95091.97;4195226;28;20480;-64
2022/10/19 03:51:41;;;;;;;13.60;6.65;;;;;;;7.84;58.80;95100.06;4195522;28;20056;-62
2022/10/19 03:53:43;;;;;;;10.07;6.53;;;;;;;7.82;59.58;95105.41;4196173;28;20540;-62
2022/10/19 03:55:44;;;;;;;10.10;6.70;;;;;;;7.82;58.95;95094.16;4195843;28;20056;-60
2022/10/19 03:57:46;;;;;;;10.50;6.43;;;;;;;7.77;59.61;95098.00;4194308;28;20436;-63
2022/10/19 03:59:48;;;;;;;11.15;6.45;;;;;;;7.79;59.34;95090.88;4196128;28;20048;-62
2022/10/19 04:01:49;;;;;;;10.85;6.10;;;;;;;7.80;59.49;95100.31;4193823;28;20113;-64
2022/10/19 04:03:55;;;;;;;11.15;6.57;;;;;;;7.85;58.64;95099.94;4191176;28;20135;-64
2022/10/19 04:06:05;;;;;;;16.10;6.68;;;;;;;7.89;58.54;95092.66;4195484;28;20044;-63
2022/10/19 04:08:07;;;;;;;13.07;7.18;;;;;;;7.90;58.53;95091.72;4186488;28;20592;-63
2022/10/19 04:10:09;;;;;;;11.73;7.00;;;;;;;7.91;58.45;95094.19;4190531;28;20072;-64
2022/10/19 04:12:10;;;;;;;8.73;5.60;;;;;;;7.93;58.52;95091.44;4195054;28;20056;-64
2022/10/19 04:14:14;;;;;;;14.02;6.75;;;;;;;7.95;58.46;95090.34;4195606;28;20136;-63
2022/10/19 04:16:33;;;;;;;10.48;6.25;;;;;;;7.95;58.15;95089.53;4182707;28;20053;-64
2022/10/19 04:18:35;;;;;;;15.57;7.43;;;;;;;7.97;58.06;95085.00;4179400;28;20056;-67
2022/10/19 04:20:40;;;;;;;11.13;6.65;;;;;;;7.95;58.51;95092.97;4180393;28;20568;-67
2022/10/19 04:22:42;;;;;;;13.02;7.18;;;;;;;7.89;58.86;95082.22;4179879;28;20053;-64
2022/10/19 04:24:44;;;;;;;12.68;7.43;;;;;;;7.83;58.74;95081.00;4179295;28;20059;-64
2022/10/19 04:26:50;;;;;;;17.83;7.80;;;;;;;7.73;58.45;95080.97;4177771;28;20405;-63
2022/10/19 04:28:52;;;;;;;17.55;7.60;;;;;;;7.74;59.39;95074.81;4185150;28;20828;-63
2022/10/19 04:30:54;;;;;;;18.48;7.90;;;;;;;7.74;59.32;95069.59;4185253;28;20052;-64
2022/10/19 04:32:56;;;;;;;14.73;7.57;;;;;;;7.75;59.32;95079.03;4192131;28;20125;-67
2022/10/19 04:34:57;;;;;;;13.55;7.20;;;;;;;7.76;58.83;95080.69;4195453;28;20053;-60
2022/10/19 04:37:00;;;;;;;16.33;7.57;;;;;;;7.76;59.40;95074.66;4180396;28;20136;-61
2022/10/19 04:39:03;;;;;;;18.35;8.05;;;;;;;7.75;58.60;95079.03;4181972;28;20134;-60
2022/10/19 04:41:07;;;;;;;26.67;8.65;;;;;;;7.77;58.88;95077.13;4185310;28;20126;-59
2022/10/19 04:43:08;;;;;;;19.73;8.80;;;;;;;7.80;59.35;95076.03;4187054;28;20049;-57
2022/10/19 04:45:10;;;;;;;22.05;8.73;;;;;;;7.78;59.05;95072.72;4187455;28;20056;-63
2022/10/19 04:47:12;;;;;;;20.77;8.88;;;;;;;7.76;59.40;95069.44;4194172;28;20045;-66
2022/10/19 04:49:13;;;;;;;27.67;10.68;;;;;;;7.69;59.55;95076.97;4182756;28;20073;-64
2022/10/19 04:51:21;;;;;;;22.85;11.07;;;;;;;7.64;59.55;95076.53;4178551;28;20141;-64
2022/10/19 04:53:23;;;;;;;24.38;11.02;;;;;;;7.60;59.62;95080.38;4182759;28;20045;-64
2022/10/19 04:55:30;;;;;;;27.80;11.98;;;;;;;7.61;60.12;95076.78;4184753;28;20502;-65
2022/10/19 04:57:31;;;;;;;42.38;19.13;;;;;;;7.61;59.87;95081.19;4192558;28;20567;-61
2022/10/19 04:59:34;;;;;;;34.65;15.10;;;;;;;7.59;60.05;95081.31;4191259;28;20133;-63
2022/10/19 05:01:35;;;;;;;29.67;14.93;;;;;;;7.61;59.93;95082.00;4178780;28;20073;-65
2022/10/19 05:03:37;;;;;;;28.98;13.52;;;;;;;7.69;59.98;95079.56;4191142;28;20108;-64
2022/10/19 05:05:39;;;;;;;29.15;15.43;;;;;;;7.72;59.72;95084.53;4182290;28;20084;-64
2022/10/19 05:07:41;;;;;;;22.48;14.48;;;;;;;7.76;59.52;95083.28;4184158;28;20044;-62
2022/10/19 05:09:42;;;;;;;29.20;16.65;;;;;;;7.82;58.76;95073.31;4187615;28;20053;-63
2022/10/19 05:11:44;;;;;;;32.33;16.08;;;;;;;7.91;58.59;95081.13;4179854;28;20656;-64
2022/10/19 05:13:47;;;;;;;31.48;16.83;;;;;;;7.94;58.75;95080.06;4194226;28;20060;-64
2022/10/19 05:15:56;;;;;;;31.08;19.98;;;;;;;7.97;58.60;95077.19;4186811;28;20072;-66
2022/10/19 05:17:58;;;;;;;28.70;19.05;;;;;;;8.08;58.82;95069.22;4180224;28;20145;-63
2022/10/19 05:19:59;;;;;;;31.27;18.30;;;;;;;8.24;58.38;95075.72;4180440;28;20071;-65
2022/10/19 05:22:01;;;;;;;26.08;17.85;;;;;;;8.44;58.11;95080.03;4180120;28;20048;-65
2022/10/19 05:24:02;;;;;;;26.45;18.63;;;;;;;8.43;58.12;95067.94;4178755;28;20574;-64
2022/10/19 05:26:10;;;;;;;27.02;16.38;;;;;;;8.45;57.85;95073.03;4179602;28;20076;-65
2022/10/19 05:28:11;;;;;;;23.58;15.65;;;;;;;8.48;57.12;95075.38;4181300;28;20135;-64
2022/10/19 05:30:13;;;;;;;29.20;14.68;;;;;;;8.48;56.97;95068.34;4177933;28;20136;-64
2022/10/19 05:32:15;;;;;;;33.15;14.38;;;;;;;8.48;56.57;95075.38;4178190;28;20159;-66
2022/10/19 05:34:16;;;;;;;30.48;13.68;;;;;;;8.47;56.72;95079.75;4182208;28;20075;-69
2022/10/19 05:36:19;;;;;;;26.75;13.88;;;;;;;8.51;57.33;95077.69;4188098;28;20084;-66
2022/10/19 05:38:21;;;;;;;26.55;13.38;;;;;;;8.52;57.19;95079.38;4178812;28;20413;-61
2022/10/19 05:40:22;;;;;;;24.20;14.05;;;;;;;8.54;56.62;95078.25;4177868;28;20057;-64
2022/10/19 05:42:24;;;;;;;31.08;18.52;;;;;;;8.59;56.52;95086.50;4182088;28;20072;-64
2022/10/19 05:44:26;;;;;;;41.90;16.45;;;;;;;8.57;56.89;95085.81;4185383;28;20480;-64
2022/10/19 05:46:29;;;;;;;42.65;26.42;;;;;;;8.65;56.53;95089.50;4182134;28;20140;-66
2022/10/19 05:48:34;;;;;;;49.70;28.05;;;;;;;8.61;56.02;95084.56;4165747;28;20049;-64
2022/10/19 05:50:36;;;;;;;54.45;23.88;;;;;;;8.60;57.15;95088.16;4185911;28;20047;-67
2022/10/19 05:52:37;;;;;;;44.83;27.95;;;;;;;8.60;56.57;95080.31;4188369;28;20045;-63
2022/10/19 05:54:39;;;;;;;47.30;22.63;;;;;;;8.67;57.35;95085.81;4186200;28;20077;-66
2022/10/19 05:56:41;;;;;;;47.33;24.23;;;;;;;8.75;56.60;95077.28;4186702;28;20072;-65
2022/10/19 05:58:43;;;;;;;37.95;24.15;;;;;;;8.85;56.23;95082.50;4196191;28;20048;-65
2022/10/19 06:00:56;;;;;;;44.40;23.20;;;;;;;8.85;56.44;95083.31;4196372;28;20143;-63
2022/10/19 06:02:58;;;;;;;30.42;19.98;;;;;;;8.81;55.91;95084.56;4185965;28;20127;-62
2022/10/19 06:04:59;;;;;;;35.85;20.92;;;;;;;8.89;55.15;95089.09;4189976;28;20052;-65
2022/10/19 06:07:01;;;;;;;34.22;20.88;;;;;;;8.91;55.26;95085.38;4191941;28;20465;-65
2022/10/19 06:09:03;;;;;;;29.45;19.67;;;;;;;8.88;55.13;95092.66;4196129;28;20060;-65
2022/10/19 06:11:09;;;;;;;26.45;18.00;;;;;;;8.75;55.77;95091.16;4189748;28;20044;-63
2022/10/19 06:13:11;;;;;;;26.98;18.08;;;;;;;8.82;55.55;95091.47;4185599;28;20075;-63
2022/10/19 06:15:13;;;;;;;28.77;17.85;;;;;;;8.94;55.25;95099.94;4185465;28;20128;-64
2022/10/19 06:17:15;;;;;;;28.60;19.17;;;;;;;9.02;55.41;95098.28;4183789;28;20056;-65
2022/10/19 06:19:16;;;;;;;29.35;17.63;;;;;;;9.09;54.45;95100.34;4183281;28;20048;-64
2022/10/19 06:21:21;;;;;;;22.50;14.57;;;;;;;9.22;54.26;95101.69;4187193;28;20053;-65
2022/10/19 06:23:23;;;;;;;35.10;15.15;;;;;;;9.31;53.99;95104.44;4187611;28;20148;-62
2022/10/19 06:25:25;;;;;;;34.75;15.30;;;;;;;9.44;53.53;95112.78;4189987;28;20062;-66
2022/10/19 06:27:26;;;;;;;20.08;13.30;;;;;;;9.53;53.49;95109.34;4197520;28;20693;-64
2022/10/19 06:29:28;;;;;;;24.17;13.43;;;;;;;9.64;53.60;95105.72;4191464;28;20049;-63
2022/10/19 06:31:31;;;;;;;20.58;13.02;;;;;;;9.69;53.42;95110.53;4193412;28;20083;-64
2022/10/19 06:33:33;;;;;;;22.35;13.27;;;;;;;9.75;52.67;95097.69;4197625;28;20055;-67
2022/10/19 06:35:35;;;;;;;26.73;14.07;;;;;;;9.86;53.23;95103.72;4191026;28;20068;-67
2022/10/19 06:37:37;;;;;;;23.15;12.95;;;;;;;9.98;52.71;95102.53;4184934;28;20131;-65
2022/10/19 06:39:38;;;;;;;24.08;13.32;;;;;;;10.10;52.98;95103.19;4194133;28;20139;-68
2022/10/19 06:41:40;;;;;;;24.45;14.40;;;;;;;10.21;51.94;95103.78;4193460;28;20056;-61
2022/10/19 06:43:42;;;;;;;24.58;12.38;;;;;;;10.30;52.11;95099.50;4179748;28;20053;-62
2022/10/19 06:45:43;;;;;;;36.47;17.05;;;;;;;10.40;52.25;95107.31;4189098;28;20135;-59
2022/10/19 06:47:45;;;;;;;46.78;27.00;;;;;;;10.51;53.72;95093.97;4196869;28;20054;-64
2022/10/19 06:49:48;;;;;;;53.63;27.17;;;;;;;10.61;53.48;95099.97;4193681;28;20076;-61
2022/10/19 06:51:49;;;;;;;35.53;18.58;;;;;;;10.73;52.69;95097.13;4187764;28;20048;-59
2022/10/19 06:53:52;;;;;;;29.65;17.05;;;;;;;10.85;51.95;95090.69;4195764;28;20088;-63
2022/10/19 06:55:58;;;;;;;21.17;13.40;;;;;;;10.93;51.01;95088.16;4196994;28;20084;-60
2022/10/19 06:58:00;;;;;;;23.33;12.27;;;;;;;10.92;49.71;95081.25;4197287;28;20045;-56
2022/10/19 07:00:03;;;;;;;23.23;11.93;;;;;;;10.84;50.05;95078.56;4197132;28;20106;-60
2022/10/19 07:02:05;;;;;;;23.48;12.77;;;;;;;10.78;50.29;95073.94;4184171;28;20092;-57
2022/10/19 07:04:07;;;;;;;18.45;11.50;;;;;;;10.78;49.81;95073.94;4183174;28;20084;-59
2022/10/19 07:06:10;;;;;;;20.55;11.95;;;;;;;10.86;49.91;95074.81;4197010;28;20127;-59
2022/10/19 07:08:12;;;;;;;27.10;12.93;;;;;;;10.87;50.31;95073.03;4185167;28;20139;-59
2022/10/19 07:10:14;;;;;;;30.52;11.90;;;;;;;10.98;50.08;95064.91;4179813;28;20051;-61
2022/10/19 07:12:15;;;;;;;25.13;12.48;;;;;;;11.06;49.53;95070.22;4193190;28;20155;-59
2022/10/19 07:14:17;;;;;;;20.23;11.88;;;;;;;11.11;49.31;95066.31;4171464;28;20102;-60
2022/10/19 07:16:19;;;;;;;24.35;12.13;;;;;;;11.22;49.49;95066.88;4191118;28;20125;-59
2022/10/19 07:18:22;;;;;;;21.02;11.88;;;;;;;11.35;49.05;95066.47;4183022;28;20394;-58
2022/10/19 07:20:24;;;;;;;25.35;12.35;;;;;;;11.50;48.81;95068.53;4193226;28;20136;-57
2022/10/19 07:22:25;;;;;;;26.42;14.07;;;;;;;11.59;48.45;95068.41;4185272;28;20048;-58
2022/10/19 07:24:29;;;;;;;39.88;14.40;;;;;;;11.66;48.14;95068.63;4182863;28;20523;-56
2022/10/19 07:26:32;;;;;;;33.33;15.15;;;;;;;11.79;48.04;95069.00;4190797;28;20080;-56
2022/10/19 07:28:34;;;;;;;27.98;16.33;;;;;;;11.96;48.00;95066.47;4186232;28;20382;-61
2022/10/19 07:30:37;;;;;;;27.02;14.52;;;;;;;11.97;47.14;95061.06;4194857;28;20049;-58
2022/10/19 07:32:39;;;;;;;27.00;13.68;;;;;;;11.71;46.84;95062.91;4190939;28;20052;-60
2022/10/19 07:34:47;;;;;;;32.03;14.68;;;;;;;11.47;46.94;95059.19;4188894;28;20125;-59
2022/10/19 07:36:49;;;;;;;28.60;15.05;;;;;;;11.58;47.08;95052.84;4196232;28;20063;-59
2022/10/19 07:38:51;;;;;;;29.70;19.73;;;;;;;11.24;47.87;95058.88;4196093;28;20052;-58
2022/10/19 07:41:02;;;;;;;40.75;20.65;;;;;;;11.09;48.18;95060.41;4196083;28;20052;-60
2022/10/19 07:43:03;;;;;;;31.63;16.85;;;;;;;10.97;48.67;95058.03;4185187;28;20460;-60
2022/10/19 07:45:06;;;;;;;30.30;17.13;;;;;;;11.01;48.63;95048.03;4180964;28;20044;-56
2022/10/19 07:47:07;;;;;;;27.63;17.75;;;;;;;11.31;48.63;95048.56;4179715;28;20084;-57
2022/10/19 07:49:12;;;;;;;37.45;18.35;;;;;;;11.59;48.20;95041.34;4179777;28;20076;-58
2022/10/19 07:51:15;;;;;;;39.85;19.48;;;;;;;11.90;47.86;95033.00;4179553;28;20136;-58
2022/10/19 07:53:17;;;;;;;28.57;17.60;;;;;;;12.20;47.38;95029.78;4180216;28;20102;-59
2022/10/19 07:55:18;;;;;;;31.45;18.55;;;;;;;12.19;46.86;95033.38;4179457;28;20511;-58
2022/10/19 07:57:21;;;;;;;37.13;20.05;;;;;;;12.21;46.67;95028.78;4179741;28;20078;-57
2022/10/19 07:59:22;;;;;;;32.42;18.63;;;;;;;12.13;46.64;95023.56;4179966;28;20059;-56
2022/10/19 08:01:27;;;;;;;35.60;18.02;;;;;;;12.28;46.88;95023.72;4177229;28;20053;-56
2022/10/19 08:03:29;;;;;;;32.63;19.90;;;;;;;12.48;46.68;95032.97;4180229;28;20103;-57
2022/10/19 08:05:50;;;;;;;35.33;17.80;;;;;;;12.80;45.76;95022.59;4179727;28;20053;-61
2022/10/19 08:07:52;;;;;;;29.23;17.88;;;;;;;13.02;45.47;95023.78;4179880;28;20075;-64
2022/10/19 08:09:54;;;;;;;37.38;17.05;;;;;;;13.16;45.26;95024.88;4179581;28;20257;-66
2022/10/19 08:11:56;;;;;;;27.38;16.00;;;;;;;12.93;44.84;95022.97;4191627;28;20053;-66
2022/10/19 08:13:58;;;;;;;29.08;16.05;;;;;;;12.92;45.40;95021.28;4195477;28;20080;-66
2022/10/19 08:15:59;;;;;;;24.23;15.23;;;;;;;12.70;45.26;95030.69;4194002;28;20087;-62
2022/10/19 08:18:01;;;;;;;29.58;15.18;;;;;;;12.67;45.70;95026.56;4195553;28;20076;-65
2022/10/19 08:20:05;;;;;;;27.90;14.45;;;;;;;12.60;45.82;95022.94;4183206;28;20128;-66
2022/10/19 08:22:07;;;;;;;21.88;13.77;;;;;;;12.91;45.17;95023.13;4193751;28;20163;-63
2022/10/19 08:24:10;;;;;;;26.33;14.07;;;;;;;13.03;45.56;95020.13;4194466;28;20552;-65
2022/10/19 08:26:12;;;;;;;24.73;13.80;;;;;;;13.27;44.40;95014.00;4193326;28;20347;-66
2022/10/19 08:28:14;;;;;;;27.33;13.90;;;;;;;13.27;44.59;95019.28;4194931;28;20076;-65
2022/10/19 08:30:15;;;;;;;18.75;11.80;;;;;;;13.35;44.51;95006.13;4194719;28;20048;-68
2022/10/19 08:32:17;;;;;;;21.52;11.13;;;;;;;13.59;43.70;95012.31;4194672;28;20044;-70
2022/10/19 08:34:19;;;;;;;26.85;12.85;;;;;;;13.75;43.39;95000.94;4194086;28;20128;-65
2022/10/19 08:36:21;;;;;;;25.48;12.77;;;;;;;14.01;43.92;94998.81;4191675;28;20127;-63
2022/10/19 08:38:23;;;;;;;25.13;13.00;;;;;;;14.04;42.60;95002.91;4195494;28;20763;-64
2022/10/19 08:40:29;;;;;;;22.65;12.07;;;;;;;14.07;42.67;95002.59;4193738;28;20160;-65
2022/10/19 08:43:08;;;;;;;22.55;10.90;;;;;;;14.27;43.02;94995.03;4186178;28;20100;-65
2022/10/19 08:45:25;;;;;;;20.60;11.35;;;;;;;14.48;42.04;95004.97;4179643;28;20485;-67
2022/10/19 08:47:33;;;;;;;21.88;10.27;;;;;;;14.70;41.84;94998.88;4178538;28;20049;-68
2022/10/19 08:49:35;;;;;;;21.33;9.25;;;;;;;14.44;41.82;94993.13;4192934;28;20080;-68
2022/10/19 08:51:39;;;;;;;16.77;8.63;;;;;;;14.64;41.69;94993.50;4194155;28;20093;-68
2022/10/19 08:53:44;;;;;;;16.85;8.38;;;;;;;14.79;41.47;94986.44;4174452;28;20124;-67
2022/10/19 08:56:10;;;;;;;16.05;7.45;;;;;;;14.95;41.22;94991.59;4194490;28;20533;-65
2022/10/19 08:58:47;;;;;;;14.07;6.18;;;;;;;14.98;40.96;94981.69;4193820;28;20044;-66
2022/10/19 09:00:55;;;;;;;13.43;5.55;;;;;;;14.92;40.96;94983.19;4191518;28;20135;-65
2022/10/19 09:03:03;;;;;;;12.73;6.25;;;;;;;15.13;41.05;94985.16;4193354;28;20512;-68
2022/10/19 09:05:15;;;;;;;15.43;5.60;;;;;;;15.11;41.00;94982.69;4194229;28;20330;-69
2022/10/19 09:07:36;;;;;;;14.43;5.28;;;;;;;15.38;40.88;94979.63;4192103;28;20179;-64
2022/10/19 09:09:43;;;;;;;10.82;4.95;;;;;;;15.55;40.46;94983.72;4192031;28;20088;-61
2022/10/19 09:11:49;;;;;;;9.15;4.55;;;;;;;15.76;40.42;94981.16;4192609;28;20584;-61
2022/10/19 09:13:59;;;;;;;10.88;5.18;;;;;;;15.89;39.97;94983.16;4189899;28;20548;-58
2022/10/19 09:16:07;;;;;;;10.25;5.38;;;;;;;15.77;40.56;94989.94;4190674;28;20152;-66
2022/10/19 09:18:11;;;;;;;12.02;5.45;;;;;;;15.95;39.94;94978.97;4194309;28;20397;-67
2022/10/19 09:20:22;;;;;;;12.15;5.50;;;;;;;16.05;40.18;94983.97;4192141;28;20127;-65
2022/10/19 09:22:31;;;;;;;9.25;4.97;;;;;;;16.12;40.08;94977.75;4182426;28;20151;-67
2022/10/19 09:24:53;;;;;;;12.70;5.35;;;;;;;16.08;40.04;94981.75;4183420;28;20048;-66
2022/10/19 09:26:58;;;;;;;12.52;5.22;;;;;;;16.08;40.27;94975.66;4180586;28;20057;-68
2022/10/19 09:29:06;;;;;;;11.65;5.20;;;;;;;15.97;39.81;94975.13;4195375;28;20076;-67
2022/10/19 09:31:19;;;;;;;11.68;4.53;;;;;;;15.93;39.50;94981.78;4192079;28;20036;-68
2022/10/19 09:33:27;;;;;;;9.90;4.85;;;;;;;15.54;40.02;94979.44;4192301;28;20076;-68
2022/10/19 09:35:36;;;;;;;11.88;5.78;;;;;;;15.60;40.01;94983.19;4190600;28;20072;-66
2022/10/19 09:37:40;;;;;;;9.20;4.05;;;;;;;15.54;40.05;94990.81;4189185;28;20045;-68
2022/10/19 09:39:42;;;;;;;10.48;4.97;;;;;;;15.67;40.19;94979.63;4177697;28;20179;-67
2022/10/19 09:41:58;;;;;;;12.10;4.60;;;;;;;15.73;39.75;94972.81;4193180;28;20119;-67
2022/10/19 09:44:00;;;;;;;9.63;4.20;;;;;;;15.94;39.84;94980.00;4187677;28;20473;-69